sensor_id;sensor_type;location;lat;lon;timestamp;P1;durP1;ratioP1;P2;durP2;ratioP2
57643;SDS011;43474;46.510;6.686;2023-05-16T00:00:22;777.03;;;724.70;;
57643;SDS011;43474;46.510;6.686;2023-05-16T00:03:09;778.85;;;726.80;;
57643;SDS011;43474;46.510;6.686;2023-05-16T00:05:36;673.75;;;631.95;;
57643;SDS011;43474;46.510;6.686;2023-05-16T00:08:02;741.50;;;691.28;;
57643;SDS011;43474;46.510;6.686;2023-05-16T00:10:27;762.78;;;712.05;;
57643;SDS011;43474;46.510;6.686;2023-05-16T00:12:53;691.60;;;648.42;;
57643;SDS011;43474;46.510;6.686;2023-05-16T00:15:18;763.70;;;713.25;;
57643;SDS011;43474;46.510;6.686;2023-05-16T00:17:44;735.42;;;688.22;;
57643;SDS011;43474;46.510;6.686;2023-05-16T00:20:14;729.20;;;682.47;;
57643;SDS011;43474;46.510;6.686;2023-05-16T00:22:42;761.27;;;709.93;;
57643;SDS011;43474;46.510;6.686;2023-05-16T00:25:07;695.35;;;651.25;;
57643;SDS011;43474;46.510;6.686;2023-05-16T00:27:34;686.40;;;643.55;;
57643;SDS011;43474;46.510;6.686;2023-05-16T00:30:03;759.35;;;708.50;;
57643;SDS011;43474;46.510;6.686;2023-05-16T00:32:29;697.75;;;653.05;;
57643;SDS011;43474;46.510;6.686;2023-05-16T00:34:55;766.00;;;715.47;;
57643;SDS011;43474;46.510;6.686;2023-05-16T00:37:21;759.63;;;708.28;;
57643;SDS011;43474;46.510;6.686;2023-05-16T00:39:46;758.70;;;708.90;;
57643;SDS011;43474;46.510;6.686;2023-05-16T00:42:12;730.53;;;681.22;;
57643;SDS011;43474;46.510;6.686;2023-05-16T00:44:37;709.33;;;664.03;;
57643;SDS011;43474;46.510;6.686;2023-05-16T00:47:03;706.08;;;659.70;;
57643;SDS011;43474;46.510;6.686;2023-05-16T00:49:29;729.22;;;682.25;;
57643;SDS011;43474;46.510;6.686;2023-05-16T00:51:55;748.40;;;699.40;;
57643;SDS011;43474;46.510;6.686;2023-05-16T00:54:22;760.28;;;708.92;;
57643;SDS011;43474;46.510;6.686;2023-05-16T00:56:50;680.28;;;636.08;;
57643;SDS011;43474;46.510;6.686;2023-05-16T00:59:16;763.25;;;710.88;;
57643;SDS011;43474;46.510;6.686;2023-05-16T01:01:43;765.45;;;713.97;;
57643;SDS011;43474;46.510;6.686;2023-05-16T01:04:11;758.22;;;708.47;;
57643;SDS011;43474;46.510;6.686;2023-05-16T01:06:37;730.70;;;682.15;;
57643;SDS011;43474;46.510;6.686;2023-05-16T01:09:02;762.92;;;710.75;;
57643;SDS011;43474;46.510;6.686;2023-05-16T01:11:39;679.55;;;636.03;;
57643;SDS011;43474;46.510;6.686;2023-05-16T01:14:18;716.50;;;668.67;;
57643;SDS011;43474;46.510;6.686;2023-05-16T01:19:40;803.75;;;747.92;;
57643;SDS011;43474;46.510;6.686;2023-05-16T01:22:35;725.42;;;677.60;;
57643;SDS011;43474;46.510;6.686;2023-05-16T01:25:25;737.63;;;689.13;;
57643;SDS011;43474;46.510;6.686;2023-05-16T01:28:02;715.55;;;669.63;;
57643;SDS011;43474;46.510;6.686;2023-05-16T01:30:33;764.13;;;713.78;;
57643;SDS011;43474;46.510;6.686;2023-05-16T01:33:00;792.28;;;737.40;;
57643;SDS011;43474;46.510;6.686;2023-05-16T01:35:26;736.78;;;687.47;;
57643;SDS011;43474;46.510;6.686;2023-05-16T01:43:27;702.30;;;658.13;;
57643;SDS011;43474;46.510;6.686;2023-05-16T01:45:59;756.17;;;704.83;;
57643;SDS011;43474;46.510;6.686;2023-05-16T01:48:57;717.50;;;671.65;;
57643;SDS011;43474;46.510;6.686;2023-05-16T01:51:41;748.22;;;698.00;;
57643;SDS011;43474;46.510;6.686;2023-05-16T01:54:11;757.60;;;707.22;;
57643;SDS011;43474;46.510;6.686;2023-05-16T01:56:39;786.55;;;733.42;;
57643;SDS011;43474;46.510;6.686;2023-05-16T01:59:11;784.50;;;730.85;;
57643;SDS011;43474;46.510;6.686;2023-05-16T02:01:37;809.67;;;752.72;;
57643;SDS011;43474;46.510;6.686;2023-05-16T02:04:03;789.67;;;736.30;;
57643;SDS011;43474;46.510;6.686;2023-05-16T02:06:28;782.55;;;729.58;;
57643;SDS011;43474;46.510;6.686;2023-05-16T02:08:55;774.55;;;721.70;;
57643;SDS011;43474;46.510;6.686;2023-05-16T02:11:20;768.78;;;715.60;;
57643;SDS011;43474;46.510;6.686;2023-05-16T02:13:47;762.35;;;710.58;;
57643;SDS011;43474;46.510;6.686;2023-05-16T02:16:13;780.38;;;726.42;;
57643;SDS011;43474;46.510;6.686;2023-05-16T02:18:38;804.83;;;749.90;;
57643;SDS011;43474;46.510;6.686;2023-05-16T02:21:04;768.70;;;715.63;;
57643;SDS011;43474;46.510;6.686;2023-05-16T02:23:30;749.60;;;697.67;;
57643;SDS011;43474;46.510;6.686;2023-05-16T02:25:55;807.63;;;750.15;;
57643;SDS011;43474;46.510;6.686;2023-05-16T02:28:21;812.10;;;756.47;;
57643;SDS011;43474;46.510;6.686;2023-05-16T02:30:54;777.47;;;724.40;;
57643;SDS011;43474;46.510;6.686;2023-05-16T02:33:24;781.38;;;727.88;;
57643;SDS011;43474;46.510;6.686;2023-05-16T02:35:51;776.55;;;723.30;;
57643;SDS011;43474;46.510;6.686;2023-05-16T02:38:17;785.28;;;732.33;;
57643;SDS011;43474;46.510;6.686;2023-05-16T02:40:45;785.72;;;729.60;;
57643;SDS011;43474;46.510;6.686;2023-05-16T02:43:13;794.15;;;738.60;;
57643;SDS011;43474;46.510;6.686;2023-05-16T02:45:39;829.55;;;769.10;;
57643;SDS011;43474;46.510;6.686;2023-05-16T02:48:05;820.00;;;761.53;;
57643;SDS011;43474;46.510;6.686;2023-05-16T02:50:31;823.42;;;764.72;;
57643;SDS011;43474;46.510;6.686;2023-05-16T02:52:57;836.42;;;777.20;;
57643;SDS011;43474;46.510;6.686;2023-05-16T02:55:27;798.22;;;742.83;;
57643;SDS011;43474;46.510;6.686;2023-05-16T02:57:53;816.10;;;758.17;;
57643;SDS011;43474;46.510;6.686;2023-05-16T03:00:19;807.83;;;752.20;;
57643;SDS011;43474;46.510;6.686;2023-05-16T03:02:45;817.13;;;758.67;;
57643;SDS011;43474;46.510;6.686;2023-05-16T03:05:11;812.22;;;754.40;;
57643;SDS011;43474;46.510;6.686;2023-05-16T03:07:37;709.38;;;664.33;;
57643;SDS011;43474;46.510;6.686;2023-05-16T03:10:03;791.42;;;736.28;;
57643;SDS011;43474;46.510;6.686;2023-05-16T03:12:29;813.95;;;757.13;;
57643;SDS011;43474;46.510;6.686;2023-05-16T03:14:54;793.55;;;738.78;;
57643;SDS011;43474;46.510;6.686;2023-05-16T03:17:20;798.33;;;743.22;;
57643;SDS011;43474;46.510;6.686;2023-05-16T03:19:46;771.03;;;718.53;;
57643;SDS011;43474;46.510;6.686;2023-05-16T03:22:12;781.00;;;727.20;;
57643;SDS011;43474;46.510;6.686;2023-05-16T03:24:37;730.25;;;680.97;;
57643;SDS011;43474;46.510;6.686;2023-05-16T03:27:03;766.67;;;715.40;;
57643;SDS011;43474;46.510;6.686;2023-05-16T03:29:29;768.28;;;717.08;;
57643;SDS011;43474;46.510;6.686;2023-05-16T03:31:55;783.83;;;730.75;;
57643;SDS011;43474;46.510;6.686;2023-05-16T03:34:20;798.95;;;743.58;;
57643;SDS011;43474;46.510;6.686;2023-05-16T03:36:47;779.42;;;726.22;;
57643;SDS011;43474;46.510;6.686;2023-05-16T03:39:13;743.45;;;694.53;;
57643;SDS011;43474;46.510;6.686;2023-05-16T03:41:40;735.35;;;686.25;;
57643;SDS011;43474;46.510;6.686;2023-05-16T03:44:05;702.88;;;656.72;;
57643;SDS011;43474;46.510;6.686;2023-05-16T03:46:31;710.92;;;665.60;;
57643;SDS011;43474;46.510;6.686;2023-05-16T03:48:56;768.05;;;716.25;;
57643;SDS011;43474;46.510;6.686;2023-05-16T03:51:23;790.63;;;734.20;;
57643;SDS011;43474;46.510;6.686;2023-05-16T03:53:48;710.17;;;663.88;;
57643;SDS011;43474;46.510;6.686;2023-05-16T03:56:14;728.53;;;678.72;;
57643;SDS011;43474;46.510;6.686;2023-05-16T03:58:40;691.22;;;647.50;;
57643;SDS011;43474;46.510;6.686;2023-05-16T04:01:05;655.45;;;615.50;;
57643;SDS011;43474;46.510;6.686;2023-05-16T04:03:31;767.08;;;715.38;;
57643;SDS011;43474;46.510;6.686;2023-05-16T04:05:58;702.00;;;656.90;;
57643;SDS011;43474;46.510;6.686;2023-05-16T04:08:23;699.63;;;654.65;;
57643;SDS011;43474;46.510;6.686;2023-05-16T04:10:50;686.90;;;642.70;;
57643;SDS011;43474;46.510;6.686;2023-05-16T04:13:16;682.42;;;639.13;;
57643;SDS011;43474;46.510;6.686;2023-05-16T04:15:41;739.25;;;688.83;;
57643;SDS011;43474;46.510;6.686;2023-05-16T04:18:07;714.17;;;666.65;;
57643;SDS011;43474;46.510;6.686;2023-05-16T04:20:34;629.42;;;589.78;;
57643;SDS011;43474;46.510;6.686;2023-05-16T04:23:00;758.00;;;707.95;;
57643;SDS011;43474;46.510;6.686;2023-05-16T04:25:26;759.60;;;708.30;;
57643;SDS011;43474;46.510;6.686;2023-05-16T04:27:51;714.30;;;667.38;;
57643;SDS011;43474;46.510;6.686;2023-05-16T04:30:17;720.30;;;673.75;;
57643;SDS011;43474;46.510;6.686;2023-05-16T04:32:43;699.45;;;653.88;;
57643;SDS011;43474;46.510;6.686;2023-05-16T04:35:09;730.70;;;682.65;;
57643;SDS011;43474;46.510;6.686;2023-05-16T04:37:35;737.67;;;690.03;;
57643;SDS011;43474;46.510;6.686;2023-05-16T04:40:01;738.92;;;689.42;;
57643;SDS011;43474;46.510;6.686;2023-05-16T04:42:26;633.63;;;593.67;;
57643;SDS011;43474;46.510;6.686;2023-05-16T04:44:52;681.38;;;637.60;;
57643;SDS011;43474;46.510;6.686;2023-05-16T04:47:17;708.67;;;661.53;;
57643;SDS011;43474;46.510;6.686;2023-05-16T04:49:43;635.60;;;595.35;;
57643;SDS011;43474;46.510;6.686;2023-05-16T04:52:08;577.88;;;541.92;;
57643;SDS011;43474;46.510;6.686;2023-05-16T04:54:34;721.45;;;674.20;;
57643;SDS011;43474;46.510;6.686;2023-05-16T04:57:00;726.45;;;678.72;;
57643;SDS011;43474;46.510;6.686;2023-05-16T04:59:26;699.47;;;653.17;;
57643;SDS011;43474;46.510;6.686;2023-05-16T05:01:51;726.63;;;678.80;;
57643;SDS011;43474;46.510;6.686;2023-05-16T05:04:17;722.65;;;675.33;;
57643;SDS011;43474;46.510;6.686;2023-05-16T05:06:42;725.83;;;678.25;;
57643;SDS011;43474;46.510;6.686;2023-05-16T05:09:08;725.05;;;677.38;;
57643;SDS011;43474;46.510;6.686;2023-05-16T05:11:34;784.88;;;733.03;;
57643;SDS011;43474;46.510;6.686;2023-05-16T05:14:00;783.70;;;730.63;;
57643;SDS011;43474;46.510;6.686;2023-05-16T05:16:25;742.67;;;691.92;;
57643;SDS011;43474;46.510;6.686;2023-05-16T05:18:51;785.67;;;730.42;;
57643;SDS011;43474;46.510;6.686;2023-05-16T05:21:17;784.30;;;730.63;;
57643;SDS011;43474;46.510;6.686;2023-05-16T05:23:44;757.25;;;705.30;;
57643;SDS011;43474;46.510;6.686;2023-05-16T05:26:11;797.65;;;742.03;;
57643;SDS011;43474;46.510;6.686;2023-05-16T05:28:36;819.90;;;763.13;;
57643;SDS011;43474;46.510;6.686;2023-05-16T05:31:02;764.28;;;711.85;;
57643;SDS011;43474;46.510;6.686;2023-05-16T05:33:29;757.17;;;705.78;;
57643;SDS011;43474;46.510;6.686;2023-05-16T05:35:55;741.90;;;692.00;;
57643;SDS011;43474;46.510;6.686;2023-05-16T05:38:21;814.22;;;757.42;;
57643;SDS011;43474;46.510;6.686;2023-05-16T05:40:47;813.80;;;755.75;;
57643;SDS011;43474;46.510;6.686;2023-05-16T05:43:14;754.30;;;703.22;;
57643;SDS011;43474;46.510;6.686;2023-05-16T05:45:39;808.47;;;750.20;;
57643;SDS011;43474;46.510;6.686;2023-05-16T05:48:05;828.20;;;768.45;;
57643;SDS011;43474;46.510;6.686;2023-05-16T05:50:31;839.53;;;778.42;;
57643;SDS011;43474;46.510;6.686;2023-05-16T05:52:57;840.42;;;780.05;;
57643;SDS011;43474;46.510;6.686;2023-05-16T05:55:23;836.55;;;773.53;;
57643;SDS011;43474;46.510;6.686;2023-05-16T05:57:48;805.88;;;748.53;;
57643;SDS011;43474;46.510;6.686;2023-05-16T06:00:14;795.67;;;739.50;;
57643;SDS011;43474;46.510;6.686;2023-05-16T06:02:40;791.93;;;737.13;;
57643;SDS011;43474;46.510;6.686;2023-05-16T06:05:05;665.83;;;621.92;;
57643;SDS011;43474;46.510;6.686;2023-05-16T06:07:31;748.20;;;698.22;;
57643;SDS011;43474;46.510;6.686;2023-05-16T06:09:57;716.05;;;669.92;;
57643;SDS011;43474;46.510;6.686;2023-05-16T06:12:22;691.97;;;646.65;;
57643;SDS011;43474;46.510;6.686;2023-05-16T06:14:48;743.88;;;693.90;;
57643;SDS011;43474;46.510;6.686;2023-05-16T06:17:13;745.72;;;696.15;;
57643;SDS011;43474;46.510;6.686;2023-05-16T06:19:39;634.90;;;597.78;;
57643;SDS011;43474;46.510;6.686;2023-05-16T06:22:04;667.70;;;625.10;;
57643;SDS011;43474;46.510;6.686;2023-05-16T06:24:30;605.90;;;569.95;;
57643;SDS011;43474;46.510;6.686;2023-05-16T06:26:55;571.58;;;537.53;;
57643;SDS011;43474;46.510;6.686;2023-05-16T06:29:21;566.22;;;533.53;;
57643;SDS011;43474;46.510;6.686;2023-05-16T06:31:47;636.92;;;598.70;;
57643;SDS011;43474;46.510;6.686;2023-05-16T06:34:12;476.17;;;450.42;;
57643;SDS011;43474;46.510;6.686;2023-05-16T06:36:38;372.60;;;352.70;;
57643;SDS011;43474;46.510;6.686;2023-05-16T06:39:03;495.70;;;467.25;;
57643;SDS011;43474;46.510;6.686;2023-05-16T06:41:29;416.05;;;393.63;;
57643;SDS011;43474;46.510;6.686;2023-05-16T06:43:55;443.75;;;420.13;;
57643;SDS011;43474;46.510;6.686;2023-05-16T06:46:21;361.85;;;342.60;;
57643;SDS011;43474;46.510;6.686;2023-05-16T06:48:46;378.08;;;357.75;;
57643;SDS011;43474;46.510;6.686;2023-05-16T06:51:12;463.55;;;439.00;;
57643;SDS011;43474;46.510;6.686;2023-05-16T06:53:37;420.92;;;398.67;;
57643;SDS011;43474;46.510;6.686;2023-05-16T06:56:03;461.50;;;436.98;;
57643;SDS011;43474;46.510;6.686;2023-05-16T06:58:29;485.23;;;458.83;;
57643;SDS011;43474;46.510;6.686;2023-05-16T07:00:55;305.20;;;289.80;;
57643;SDS011;43474;46.510;6.686;2023-05-16T07:03:20;439.67;;;416.05;;
57643;SDS011;43474;46.510;6.686;2023-05-16T07:05:46;532.78;;;503.38;;
57643;SDS011;43474;46.510;6.686;2023-05-16T07:08:11;608.10;;;571.50;;
57643;SDS011;43474;46.510;6.686;2023-05-16T07:10:38;724.63;;;676.38;;
57643;SDS011;43474;46.510;6.686;2023-05-16T07:13:03;743.72;;;694.00;;
57643;SDS011;43474;46.510;6.686;2023-05-16T07:15:30;737.30;;;688.40;;
57643;SDS011;43474;46.510;6.686;2023-05-16T07:17:56;756.53;;;705.17;;
57643;SDS011;43474;46.510;6.686;2023-05-16T07:20:21;701.83;;;656.95;;
57643;SDS011;43474;46.510;6.686;2023-05-16T07:22:47;736.10;;;687.55;;
57643;SDS011;43474;46.510;6.686;2023-05-16T07:25:13;768.58;;;716.33;;
57643;SDS011;43474;46.510;6.686;2023-05-16T07:27:40;750.38;;;697.85;;
57643;SDS011;43474;46.510;6.686;2023-05-16T07:30:10;872.42;;;805.92;;
57643;SDS011;43474;46.510;6.686;2023-05-16T07:32:37;856.22;;;792.88;;
57643;SDS011;43474;46.510;6.686;2023-05-16T07:35:03;870.42;;;804.03;;
57643;SDS011;43474;46.510;6.686;2023-05-16T07:37:29;831.70;;;768.70;;
57643;SDS011;43474;46.510;6.686;2023-05-16T07:39:55;876.30;;;810.28;;
57643;SDS011;43474;46.510;6.686;2023-05-16T07:42:20;947.80;;;870.45;;
57643;SDS011;43474;46.510;6.686;2023-05-16T07:44:46;962.65;;;881.50;;
57643;SDS011;43474;46.510;6.686;2023-05-16T07:47:11;903.63;;;834.20;;
57643;SDS011;43474;46.510;6.686;2023-05-16T07:49:37;890.90;;;821.33;;
57643;SDS011;43474;46.510;6.686;2023-05-16T07:52:02;828.42;;;768.58;;
57643;SDS011;43474;46.510;6.686;2023-05-16T07:54:29;870.38;;;806.05;;
57643;SDS011;43474;46.510;6.686;2023-05-16T07:56:55;814.55;;;754.42;;
57643;SDS011;43474;46.510;6.686;2023-05-16T07:59:21;836.13;;;774.30;;
57643;SDS011;43474;46.510;6.686;2023-05-16T08:01:47;852.25;;;788.42;;
57643;SDS011;43474;46.510;6.686;2023-05-16T08:04:12;889.45;;;822.53;;
57643;SDS011;43474;46.510;6.686;2023-05-16T08:06:38;873.92;;;807.90;;
57643;SDS011;43474;46.510;6.686;2023-05-16T08:09:04;872.47;;;804.72;;
57643;SDS011;43474;46.510;6.686;2023-05-16T08:11:29;777.53;;;719.42;;
57643;SDS011;43474;46.510;6.686;2023-05-16T08:13:55;843.47;;;781.90;;
57643;SDS011;43474;46.510;6.686;2023-05-16T08:16:21;870.30;;;806.33;;
57643;SDS011;43474;46.510;6.686;2023-05-16T08:18:46;905.30;;;835.03;;
57643;SDS011;43474;46.510;6.686;2023-05-16T08:21:12;929.28;;;854.88;;
57643;SDS011;43474;46.510;6.686;2023-05-16T08:23:39;868.17;;;802.00;;
57643;SDS011;43474;46.510;6.686;2023-05-16T08:26:04;801.25;;;744.70;;
57643;SDS011;43474;46.510;6.686;2023-05-16T08:28:30;832.75;;;773.60;;
57643;SDS011;43474;46.510;6.686;2023-05-16T08:30:56;842.08;;;780.55;;
57643;SDS011;43474;46.510;6.686;2023-05-16T08:33:22;812.20;;;752.60;;
57643;SDS011;43474;46.510;6.686;2023-05-16T08:35:47;907.53;;;836.22;;
57643;SDS011;43474;46.510;6.686;2023-05-16T08:38:17;932.40;;;855.13;;
57643;SDS011;43474;46.510;6.686;2023-05-16T08:40:42;878.17;;;811.78;;
57643;SDS011;43474;46.510;6.686;2023-05-16T08:43:08;846.95;;;785.05;;
57643;SDS011;43474;46.510;6.686;2023-05-16T08:45:34;981.17;;;900.00;;
57643;SDS011;43474;46.510;6.686;2023-05-16T08:48:00;841.05;;;780.00;;
57643;SDS011;43474;46.510;6.686;2023-05-16T08:50:31;814.92;;;756.80;;
57643;SDS011;43474;46.510;6.686;2023-05-16T08:52:57;940.45;;;864.00;;
57643;SDS011;43474;46.510;6.686;2023-05-16T08:55:29;899.05;;;829.15;;
57643;SDS011;43474;46.510;6.686;2023-05-16T08:57:55;876.40;;;809.10;;
57643;SDS011;43474;46.510;6.686;2023-05-16T09:00:22;883.33;;;814.50;;
57643;SDS011;43474;46.510;6.686;2023-05-16T09:02:48;917.47;;;846.08;;
57643;SDS011;43474;46.510;6.686;2023-05-16T09:05:17;907.22;;;837.83;;
57643;SDS011;43474;46.510;6.686;2023-05-16T09:07:43;884.47;;;816.40;;
57643;SDS011;43474;46.510;6.686;2023-05-16T09:10:09;877.00;;;810.80;;
57643;SDS011;43474;46.510;6.686;2023-05-16T09:12:36;854.20;;;791.65;;
57643;SDS011;43474;46.510;6.686;2023-05-16T09:15:03;842.17;;;780.40;;
57643;SDS011;43474;46.510;6.686;2023-05-16T09:17:34;842.83;;;782.03;;
57643;SDS011;43474;46.510;6.686;2023-05-16T09:20:11;813.00;;;755.67;;
57643;SDS011;43474;46.510;6.686;2023-05-16T09:22:39;791.53;;;735.50;;
57643;SDS011;43474;46.510;6.686;2023-05-16T09:25:05;807.45;;;749.10;;
57643;SDS011;43474;46.510;6.686;2023-05-16T09:27:31;761.63;;;708.10;;
57643;SDS011;43474;46.510;6.686;2023-05-16T09:29:57;734.50;;;683.50;;
57643;SDS011;43474;46.510;6.686;2023-05-16T09:32:23;744.38;;;694.95;;
57643;SDS011;43474;46.510;6.686;2023-05-16T09:34:51;821.00;;;759.92;;
57643;SDS011;43474;46.510;6.686;2023-05-16T09:37:18;864.58;;;799.58;;
57643;SDS011;43474;46.510;6.686;2023-05-16T09:39:47;869.55;;;804.25;;
57643;SDS011;43474;46.510;6.686;2023-05-16T09:44:44;726.70;;;678.35;;
57643;SDS011;43474;46.510;6.686;2023-05-16T09:49:44;542.45;;;511.95;;
57643;SDS011;43474;46.510;6.686;2023-05-16T09:52:11;633.50;;;595.05;;
57643;SDS011;43474;46.510;6.686;2023-05-16T09:54:38;604.63;;;567.78;;
57643;SDS011;43474;46.510;6.686;2023-05-16T09:57:03;712.67;;;666.15;;
57643;SDS011;43474;46.510;6.686;2023-05-16T09:59:29;661.28;;;619.05;;
57643;SDS011;43474;46.510;6.686;2023-05-16T10:01:59;803.40;;;746.97;;
57643;SDS011;43474;46.510;6.686;2023-05-16T10:04:25;663.83;;;621.63;;
57643;SDS011;43474;46.510;6.686;2023-05-16T10:06:51;668.97;;;627.45;;
57643;SDS011;43474;46.510;6.686;2023-05-16T10:09:19;649.33;;;609.50;;
57643;SDS011;43474;46.510;6.686;2023-05-16T10:11:46;555.60;;;524.00;;
57643;SDS011;43474;46.510;6.686;2023-05-16T10:14:12;636.38;;;597.13;;
57643;SDS011;43474;46.510;6.686;2023-05-16T10:16:42;620.85;;;584.55;;
57643;SDS011;43474;46.510;6.686;2023-05-16T10:19:10;489.10;;;460.90;;
57643;SDS011;43474;46.510;6.686;2023-05-16T10:21:37;485.33;;;457.17;;
57643;SDS011;43474;46.510;6.686;2023-05-16T10:24:06;717.40;;;671.50;;
57643;SDS011;43474;46.510;6.686;2023-05-16T10:26:35;786.35;;;731.67;;
57643;SDS011;43474;46.510;6.686;2023-05-16T10:29:01;713.38;;;667.58;;
57643;SDS011;43474;46.510;6.686;2023-05-16T10:31:27;595.97;;;560.47;;
57643;SDS011;43474;46.510;6.686;2023-05-16T10:33:54;504.30;;;476.23;;
57643;SDS011;43474;46.510;6.686;2023-05-16T10:36:21;379.27;;;358.58;;
57643;SDS011;43474;46.510;6.686;2023-05-16T10:38:47;569.85;;;537.58;;
57643;SDS011;43474;46.510;6.686;2023-05-16T10:41:15;520.38;;;488.70;;
57643;SDS011;43474;46.510;6.686;2023-05-16T10:43:43;710.50;;;665.22;;
57643;SDS011;43474;46.510;6.686;2023-05-16T10:46:10;542.65;;;511.05;;
57643;SDS011;43474;46.510;6.686;2023-05-16T10:48:39;531.95;;;500.63;;
57643;SDS011;43474;46.510;6.686;2023-05-16T10:53:47;517.38;;;488.27;;
57643;SDS011;43474;46.510;6.686;2023-05-16T10:56:15;590.28;;;555.10;;
57643;SDS011;43474;46.510;6.686;2023-05-16T10:58:47;608.15;;;572.33;;
57643;SDS011;43474;46.510;6.686;2023-05-16T11:01:13;687.33;;;644.00;;
57643;SDS011;43474;46.510;6.686;2023-05-16T11:06:21;620.05;;;583.72;;
57643;SDS011;43474;46.510;6.686;2023-05-16T11:14:20;431.67;;;406.13;;
57643;SDS011;43474;46.510;6.686;2023-05-16T11:16:53;679.08;;;637.10;;
57643;SDS011;43474;46.510;6.686;2023-05-16T11:19:39;655.67;;;616.17;;
57643;SDS011;43474;46.510;6.686;2023-05-16T11:27:19;605.15;;;569.33;;
57643;SDS011;43474;46.510;6.686;2023-05-16T11:29:49;611.22;;;573.78;;
57643;SDS011;43474;46.510;6.686;2023-05-16T11:32:18;460.65;;;436.33;;
57643;SDS011;43474;46.510;6.686;2023-05-16T11:34:45;578.80;;;544.92;;
57643;SDS011;43474;46.510;6.686;2023-05-16T11:37:11;489.13;;;461.73;;
57643;SDS011;43474;46.510;6.686;2023-05-16T11:39:37;540.50;;;508.67;;
57643;SDS011;43474;46.510;6.686;2023-05-16T11:42:03;640.63;;;601.90;;
57643;SDS011;43474;46.510;6.686;2023-05-16T11:44:28;661.28;;;620.65;;
57643;SDS011;43474;46.510;6.686;2023-05-16T11:46:54;475.05;;;448.65;;
57643;SDS011;43474;46.510;6.686;2023-05-16T11:49:19;584.22;;;550.45;;
57643;SDS011;43474;46.510;6.686;2023-05-16T11:51:45;602.05;;;566.95;;
57643;SDS011;43474;46.510;6.686;2023-05-16T11:54:11;738.70;;;691.38;;
57643;SDS011;43474;46.510;6.686;2023-05-16T11:56:38;670.33;;;628.38;;
57643;SDS011;43474;46.510;6.686;2023-05-16T11:59:05;529.47;;;500.02;;
57643;SDS011;43474;46.510;6.686;2023-05-16T12:01:34;589.92;;;555.60;;
57643;SDS011;43474;46.510;6.686;2023-05-16T12:04:01;480.77;;;454.85;;
57643;SDS011;43474;46.510;6.686;2023-05-16T12:06:32;501.80;;;473.83;;
57643;SDS011;43474;46.510;6.686;2023-05-16T12:08:57;344.17;;;325.40;;
57643;SDS011;43474;46.510;6.686;2023-05-16T12:11:23;463.05;;;438.27;;
57643;SDS011;43474;46.510;6.686;2023-05-16T12:13:49;608.92;;;573.10;;
57643;SDS011;43474;46.510;6.686;2023-05-16T12:16:15;365.98;;;344.90;;
57643;SDS011;43474;46.510;6.686;2023-05-16T12:18:41;515.83;;;485.70;;
57643;SDS011;43474;46.510;6.686;2023-05-16T12:21:07;505.05;;;476.60;;
57643;SDS011;43474;46.510;6.686;2023-05-16T12:23:32;599.78;;;563.90;;
57643;SDS011;43474;46.510;6.686;2023-05-16T12:25:58;552.92;;;520.90;;
57643;SDS011;43474;46.510;6.686;2023-05-16T12:28:29;375.85;;;355.63;;
57643;SDS011;43474;46.510;6.686;2023-05-16T12:30:58;446.23;;;422.30;;
57643;SDS011;43474;46.510;6.686;2023-05-16T12:33:23;405.38;;;382.58;;
57643;SDS011;43474;46.510;6.686;2023-05-16T12:35:49;412.88;;;390.75;;
57643;SDS011;43474;46.510;6.686;2023-05-16T12:38:17;378.30;;;358.13;;
57643;SDS011;43474;46.510;6.686;2023-05-16T12:40:44;517.17;;;488.15;;
57643;SDS011;43474;46.510;6.686;2023-05-16T12:43:13;572.28;;;539.65;;
57643;SDS011;43474;46.510;6.686;2023-05-16T12:45:39;512.72;;;483.75;;
57643;SDS011;43474;46.510;6.686;2023-05-16T12:48:12;465.60;;;439.48;;
57643;SDS011;43474;46.510;6.686;2023-05-16T12:50:40;539.97;;;509.60;;
57643;SDS011;43474;46.510;6.686;2023-05-16T12:53:09;637.15;;;598.88;;
57643;SDS011;43474;46.510;6.686;2023-05-16T12:58:02;369.33;;;350.27;;
57643;SDS011;43474;46.510;6.686;2023-05-16T13:00:28;458.58;;;433.65;;
57643;SDS011;43474;46.510;6.686;2023-05-16T13:02:55;518.33;;;490.15;;
57643;SDS011;43474;46.510;6.686;2023-05-16T13:05:21;503.77;;;475.95;;
57643;SDS011;43474;46.510;6.686;2023-05-16T13:07:47;475.65;;;448.75;;
57643;SDS011;43474;46.510;6.686;2023-05-16T13:10:16;546.65;;;514.85;;
57643;SDS011;43474;46.510;6.686;2023-05-16T13:12:42;568.97;;;536.15;;
57643;SDS011;43474;46.510;6.686;2023-05-16T13:15:08;519.75;;;490.90;;
57643;SDS011;43474;46.510;6.686;2023-05-16T13:17:38;439.15;;;414.70;;
57643;SDS011;43474;46.510;6.686;2023-05-16T13:20:06;541.35;;;511.38;;
57643;SDS011;43474;46.510;6.686;2023-05-16T13:22:33;390.80;;;370.10;;
57643;SDS011;43474;46.510;6.686;2023-05-16T13:24:58;529.85;;;499.83;;
57643;SDS011;43474;46.510;6.686;2023-05-16T13:27:24;410.58;;;388.48;;
57643;SDS011;43474;46.510;6.686;2023-05-16T13:29:50;410.25;;;388.33;;
57643;SDS011;43474;46.510;6.686;2023-05-16T13:32:15;429.08;;;406.13;;
57643;SDS011;43474;46.510;6.686;2023-05-16T13:34:43;404.88;;;383.00;;
57643;SDS011;43474;46.510;6.686;2023-05-16T13:37:08;419.25;;;396.63;;
57643;SDS011;43474;46.510;6.686;2023-05-16T13:39:34;388.25;;;367.80;;
57643;SDS011;43474;46.510;6.686;2023-05-16T13:42:00;440.05;;;416.63;;
57643;SDS011;43474;46.510;6.686;2023-05-16T13:44:27;351.17;;;331.05;;
57643;SDS011;43474;46.510;6.686;2023-05-16T13:46:52;453.85;;;429.08;;
57643;SDS011;43474;46.510;6.686;2023-05-16T13:49:18;596.28;;;561.00;;
57643;SDS011;43474;46.510;6.686;2023-05-16T13:51:44;756.55;;;704.17;;
57643;SDS011;43474;46.510;6.686;2023-05-16T13:54:09;480.35;;;453.52;;
57643;SDS011;43474;46.510;6.686;2023-05-16T13:56:35;653.83;;;613.10;;
57643;SDS011;43474;46.510;6.686;2023-05-16T13:59:00;603.47;;;567.97;;
57643;SDS011;43474;46.510;6.686;2023-05-16T14:01:26;592.58;;;556.90;;
57643;SDS011;43474;46.510;6.686;2023-05-16T14:03:52;441.52;;;418.00;;
57643;SDS011;43474;46.510;6.686;2023-05-16T14:06:17;410.25;;;387.48;;
57643;SDS011;43474;46.510;6.686;2023-05-16T14:08:43;541.97;;;511.33;;
57643;SDS011;43474;46.510;6.686;2023-05-16T14:11:08;433.15;;;407.80;;
57643;SDS011;43474;46.510;6.686;2023-05-16T14:13:34;548.78;;;517.35;;
57643;SDS011;43474;46.510;6.686;2023-05-16T14:16:00;492.95;;;464.88;;
57643;SDS011;43474;46.510;6.686;2023-05-16T14:18:26;495.05;;;468.50;;
57643;SDS011;43474;46.510;6.686;2023-05-16T14:20:52;573.55;;;540.50;;
57643;SDS011;43474;46.510;6.686;2023-05-16T14:23:20;484.55;;;457.70;;
57643;SDS011;43474;46.510;6.686;2023-05-16T14:25:46;516.75;;;487.48;;